Accueil
METAR-TAF:

METAR-TAF

Aéroports :

Aéroport international de Gaborone

Gaborone, Botswana

latitude: 24-13S, longitude: 025-55E, altitude: 1005 m

Observation

Le bulletin a été fait il y a 20 minutes, à 11:00 UTC
Vent 2 kt de direction variable
Température 21°C
Humidité 30%
Pression 1028 hPa
Visibilité 10 km ou plus
pas de nuages en-dessous de 1500 mètres et pas de cumulonimbus.

METAR: FBSK 141100Z VRB02KT CAVOK 21/03 Q1028 NOSIG

Heure: 13:20 (11:20 UTC)

Prévision

Le bulletin a été fait il y a 7 heures et 20 minutes, à 04:00 UTC
Prévision valable du 14 à 06 UTC au 15 à 12 UTC
Vent 4 kt de est
Visibilité 10 km ou plus
pas de nuages en-dessous de 1500 mètres et pas de cumulonimbus.
Evoluant progressivement
du 14 à 18 UTC au 14 à 20 UTC
Vent 2 kt de direction variable

TAF: FBSK 140400Z 1406/1512 08004KT CAVOK BECMG 1418/1420 VRB02KT

Observations et prévisions météorologiques de plus de 4000 aéroports (messages METAR et TAF).

Les stations disponibles sont représentées par des disques jaunes et rouges sur la carte.

Passer la souris dessus pour voir le nom de la station.

Cliquer dessus pour voir les observations et prévisions météorologiques.

Pour changer de carte: cliquez sur les boutons verts avec une croix noire pour zoomer, sur le bouton vert avec un tiret pour effectuer un zoom arrière, ou sur les flèches vertes pour les cartes adjacentes.


METAR-TAF: